Data for 02/13/2014

Time Sea-Level Adjusted Pressure Absolute Pressure Temperature Relative Humidity Dew Point   
(mb) (inHg) (mb) (inHg) (C) (F) (%) (C) (F)
00:05 1011 29.85 840 24.81 3.5 38.2 47 -6.9 19.6
00:10 1011 29.85 840 24.81 3.7 38.6 45 -7.2 19
00:15 1011 29.85 840 24.81 3.8 38.9 42 -7.9 17.8
00:20 1011 29.85 840 24.81 4.3 39.7 41 -7.8 17.9
00:25 1011 29.85 840 24.81 4.4 39.9 41 -7.9 17.8
00:30 1011 29.85 840 24.81 4.5 40.1 40 -7.8 17.9
00:35 1011 29.85 840 24.81 4.5 40 40 -7.9 17.8
00:40 1011 29.85 841 24.83 4.5 40.1 41 -7.6 18.3
00:45 1011 29.85 841 24.83 4.3 39.8 42 -7.5 18.5
00:50 1011 29.85 841 24.83 4.2 39.6 42 -7.6 18.2
00:55 1011 29.85 841 24.83 4.3 39.8 41 -7.8 17.9
01:00 1011 29.85 841 24.83 4.7 40.5 39 -8 17.7
01:05 1011 29.85 841 24.83 4.9 40.8 39 -7.8 17.9
01:10 1011 29.85 841 24.83 4.9 40.8 39 -7.9 17.8
01:15 1011 29.85 841 24.83 4.9 40.8 39 -7.8 17.9
01:20 1011 29.85 840 24.81 4.6 40.3 40 -7.8 17.9
01:25 1011 29.85 840 24.81 4.4 40 41 -7.8 17.9
01:30 1011 29.85 840 24.81 4.3 39.8 42 -7.5 18.6
01:35 1011 29.85 840 24.81 3.6 38.4 48 -6.5 20.3
01:40 1011 29.85 840 24.81 2.5 36.5 49 -7.1 19.2
01:45 1011 29.85 840 24.81 2.7 36.8 46 -7.7 18.1
01:50 1011 29.85 840 24.81 3.2 37.7 45 -7.7 18.1
01:55 1011 29.85 840 24.81 3.6 38.4 42 -8.1 17.4
02:00 1011 29.85 840 24.81 4.1 39.3 43 -7.3 18.8
02:05 1011 29.85 840 24.81 3.7 38.7 46 -6.9 19.5
02:10 1011 29.85 840 24.81 2.9 37.1 48 -7.2 19.1
02:15 1011 29.85 840 24.81 2.9 37.2 47 -7.2 19
02:20 1011 29.85 840 24.81 2.7 36.9 48 -7.1 19.2
02:25 1011 29.85 840 24.81 2.4 36.2 50 -7 19.4
02:30 1011 29.85 840 24.81 1.9 35.5 51 -7.2 19.1
02:35 1011 29.85 840 24.81 1.7 35 52 -7.2 19.1
02:40 1011 29.85 840 24.81 1.5 34.8 52 -7.3 18.9
02:45 1010 29.83 840 24.81 1.7 35.1 50 -7.6 18.3
02:50 1010 29.83 840 24.81 2 35.6 50 -7.3 18.9
02:55 1010 29.83 840 24.81 2 35.6 49 -7.7 18.2
03:00 1010 29.83 839 24.78 2.8 37 47 -7.3 18.8
03:05 1010 29.83 839 24.78 3.1 37.6 47 -7.2 19
03:10 1010 29.83 839 24.78 3.9 38.9 44 -7.3 18.9
03:15 1010 29.83 839 24.78 4.3 39.8 43 -7.1 19.2
03:20 1010 29.83 839 24.78 4.7 40.4 43 -7 19.5
03:25 1010 29.83 839 24.78 5 40.9 42 -6.9 19.5
03:30 1010 29.83 839 24.78 5 41 43 -6.5 20.3
03:35 1010 29.83 839 24.78 4.6 40.2 45 -6.3 20.7
03:40 1010 29.83 839 24.78 4 39.3 46 -6.5 20.4
03:45 1010 29.83 839 24.78 3.8 38.8 47 -6.4 20.4
03:50 1010 29.83 839 24.78 3.6 38.4 47 -6.6 20.1
03:55 1010 29.83 839 24.78 3.5 38.3 49 -6.3 20.6
04:00 1010 29.83 839 24.78 3.2 37.8 50 -6.1 21.1
04:05 1010 29.83 839 24.78 3 37.4 52 -6 21.2
04:10 1010 29.83 839 24.78 3.2 37.8 51 -5.9 21.4
04:15 1010 29.83 839 24.78 3.5 38.2 51 -5.8 21.6
04:20 1010 29.83 839 24.78 3.6 38.4 51 -5.7 21.8
04:25 1009 29.8 839 24.78 3.7 38.6 50 -5.7 21.7
04:30 1009 29.8 839 24.78 3.7 38.7 51 -5.6 22
04:35 1009 29.8 839 24.78 3.5 38.3 51 -5.8 21.6
04:40 1009 29.8 839 24.78 3.2 37.8 52 -5.7 21.7
04:45 1009 29.8 839 24.78 3 37.4 52 -5.9 21.4
04:50 1009 29.8 839 24.78 2.9 37.2 52 -5.9 21.3
04:55 1009 29.8 839 24.78 2.7 36.8 53 -5.8 21.5
05:00 1009 29.8 839 24.78 2.9 37.1 52 -6.1 21
05:05 1009 29.8 839 24.78 3.1 37.5 52 -5.8 21.6
05:10 1009 29.8 839 24.78 3.1 37.6 52 -5.9 21.4
05:15 1009 29.8 838 24.75 2.8 37.1 53 -5.8 21.5
05:20 1009 29.8 838 24.75 2.8 37 53 -5.9 21.4
05:25 1009 29.8 838 24.75 2.9 37.2 53 -5.8 21.5
05:30 1009 29.8 838 24.75 3 37.5 53 -5.6 21.9
05:35 1009 29.8 838 24.75 3.3 37.9 54 -5.2 22.7
05:40 1009 29.8 838 24.75 3.8 38.8 53 -5 22.9
05:45 1009 29.8 838 24.75 4.1 39.3 52 -4.9 23.1
05:50 1009 29.8 838 24.75 4.1 39.4 53 -4.7 23.5
05:55 1009 29.8 838 24.75 3.9 39 53 -4.7 23.5
06:00 1009 29.8 838 24.75 3.6 38.4 53 -5 23
06:05 1009 29.8 838 24.75 3.2 37.7 55 -5.1 22.8
06:10 1009 29.8 838 24.75 3.1 37.6 54 -5.4 22.3
06:15 1009 29.8 838 24.75 2.9 37.2 55 -5.2 22.6
06:20 1009 29.8 838 24.75 2.6 36.6 58 -5 23.1
06:25 1009 29.8 838 24.75 2.1 35.8 60 -4.9 23.1
06:30 1009 29.8 838 24.75 2 35.5 60 -5 23.1
06:35 1009 29.8 838 24.75 2.1 35.8 61 -4.7 23.5
06:40 1009 29.8 838 24.75 2 35.7 61 -4.7 23.6
06:45 1009 29.8 838 24.75 2 35.6 61 -4.6 23.6
06:50 1009 29.8 838 24.75 2 35.6 61 -4.6 23.7
06:55 1009 29.8 838 24.75 2 35.6 62 -4.6 23.7
07:00 1009 29.8 838 24.75 2.2 36 61 -4.6 23.7
07:05 1009 29.8 838 24.75 2.5 36.4 60 -4.5 23.9
07:10 1009 29.8 838 24.75 2.6 36.8 59 -4.6 23.7
07:15 1009 29.8 838 24.75 3 37.5 58 -4.5 23.8
07:20 1009 29.8 838 24.75 3.2 37.8 58 -4.3 24.3
07:25 1009 29.8 838 24.75 3 37.4 59 -4.2 24.5
07:30 1009 29.8 838 24.75 2.8 37 60 -4.2 24.5
07:35 1009 29.8 838 24.75 2.5 36.5 62 -4.1 24.7
07:40 1009 29.8 838 24.75 2.6 36.7 58 -4.8 23.4
07:45 1009 29.8 838 24.75 4.1 39.4 52 -4.9 23.2
07:50 1008 29.77 838 24.75 5 41 49 -4.8 23.4
07:55 1008 29.77 838 24.75 5.3 41.6 49 -4.5 23.9
08:00 1008 29.77 837 24.72 5.3 41.5 49 -4.6 23.7
08:05 1008 29.77 837 24.72 5.3 41.5 49 -4.5 24
08:10 1008 29.77 837 24.72 5.3 41.5 49 -4.5 23.9
08:15 1008 29.77 837 24.72 5.3 41.5 49 -4.7 23.6
08:20 1008 29.77 837 24.72 5.3 41.6 49 -4.7 23.6
08:25 1008 29.77 837 24.72 5.4 41.7 48 -4.8 23.3
08:30 1008 29.77 837 24.72 5.6 42.1 47 -4.8 23.4
08:35 1008 29.77 837 24.72 5.5 41.9 48 -4.5 23.9
08:40 1007 29.74 837 24.72 5.4 41.7 49 -4.6 23.8
08:45 1007 29.74 837 24.72 5.3 41.6 49 -4.5 23.9
08:50 1008 29.77 837 24.72 5.3 41.5 49 -4.6 23.7
08:55 1007 29.74 837 24.72 5.3 41.5 50 -4.3 24.2
09:00 1007 29.74 837 24.72 5.1 41.2 51 -4.3 24.3
09:05 1007 29.74 837 24.72 5.2 41.4 48 -4.9 23.2
09:10 1008 29.77 837 24.72 5.6 42 46 -5.1 22.8
09:15 1007 29.74 837 24.72 5.8 42.4 46 -5 23
09:20 1007 29.74 837 24.72 5.7 42.2 48 -4.5 24
09:25 1007 29.74 836 24.69 5.4 41.8 48 -4.7 23.5
09:30 1007 29.74 836 24.69 5.5 41.9 48 -4.7 23.5
09:35 1007 29.74 836 24.69 5.6 42 47 -4.7 23.5
09:40 1007 29.74 836 24.69 5.6 42.2 47 -4.8 23.3
09:45 1007 29.74 836 24.69 5.7 42.2 47 -4.7 23.5
09:50 1007 29.74 836 24.69 5.7 42.3 47 -4.7 23.6
09:55 1007 29.74 836 24.69 5.8 42.4 47 -4.5 23.8
10:00 1007 29.74 836 24.69 5.8 42.4 50 -3.7 25.3
10:05 1007 29.74 836 24.69 5.8 42.5 52 -3.1 26.4
10:10 1007 29.74 836 24.69 5.6 42.1 54 -2.9 26.8
10:15 1007 29.74 836 24.69 5.6 42 55 -2.7 27.1
10:20 1007 29.74 836 24.69 5.7 42.2 55 -2.7 27.1
10:25 1007 29.74 836 24.69 5.8 42.5 54 -2.7 27.1
10:30 1007 29.74 836 24.69 6 42.8 51 -3.3 26
10:35 1007 29.74 836 24.69 6.2 43.2 49 -3.8 25.1
10:40 1007 29.74 836 24.69 6.4 43.4 45 -4.7 23.6
10:45 1007 29.74 836 24.69 6.6 43.9 43 -5.1 22.9
10:50 1007 29.74 836 24.69 7.1 44.7 42 -5 23
10:55 1007 29.74 836 24.69 7.4 45.4 41 -4.8 23.3
11:00 1007 29.74 836 24.69 7.8 46.1 39 -5.2 22.6
11:05 1007 29.74 837 24.72 7.9 46.3 38 -5.6 21.9
11:10 1007 29.74 837 24.72 7.7 45.9 40 -5.1 22.8
11:15 1007 29.74 837 24.72 7.3 45.2 42 -4.7 23.5
11:20 1008 29.77 837 24.72 6.9 44.5 46 -3.8 25.2
11:25 1008 29.77 837 24.72 6.4 43.5 50 -3.3 26
11:30 1008 29.77 837 24.72 5.9 42.6 53 -2.9 26.8
11:35 1009 29.8 838 24.75 5.5 42 56 -2.6 27.3
11:40 1009 29.8 838 24.75 5.3 41.5 58 -2.2 28
11:45 1010 29.83 839 24.78 5 41 65 -1.1 30.1
11:50 1010 29.83 839 24.78 3.2 37.8 80 0.1 32.2
11:55 1010 29.83 839 24.78 1.8 35.3 87 -0.1 31.8
12:00 1010 29.83 839 24.78 0.8 33.5 92 -0.4 31.3
12:05 1010 29.83 839 24.78 0.5 32.8 93 -0.5 31.1
12:10 1010 29.83 839 24.78 0.4 32.8 94 -0.4 31.3
12:15 1010 29.83 839 24.78 0.6 33 94 -0.3 31.4
12:20 1010 29.83 839 24.78 0.8 33.5 92 -0.3 31.5
12:25 1010 29.83 839 24.78 1.2 34.2 91 -0.2 31.7
12:30 1010 29.83 839 24.78 1.5 34.8 89 -0.1 31.9
12:35 1010 29.83 839 24.78 2 35.6 88 0.2 32.3
12:40 1010 29.83 839 24.78 2.1 35.7 87 0.1 32.2
12:45 1010 29.83 839 24.78 2.3 36.2 86 0.2 32.3
12:50 1010 29.83 839 24.78 2.4 36.3 84 -0 32
12:55 1010 29.83 839 24.78 2.7 36.8 82 -0.1 31.9
13:00 1010 29.83 839 24.78 3.2 37.8 80 0 32
13:05 1010 29.83 839 24.78 3.7 38.6 78 0.3 32.5
13:10 1010 29.83 839 24.78 3.8 38.9 79 0.5 32.9
13:15 1010 29.83 839 24.78 3.8 38.8 79 0.4 32.8
13:20 1010 29.83 839 24.78 4.2 39.6 77 0.6 33
13:25 1010 29.83 839 24.78 4.8 40.7 74 0.7 33.2
13:30 1010 29.83 839 24.78 4.4 39.9 73 -0.1 31.8
13:35 1010 29.83 839 24.78 3.9 39 71 -0.8 30.6
13:40 1009 29.8 839 24.78 4.7 40.4 56 -3.4 25.8
13:45 1009 29.8 839 24.78 5.4 41.8 47 -5 23
13:50 1009 29.8 838 24.75 5.7 42.3 48 -4.4 24.1
13:55 1009 29.8 839 24.78 5.8 42.4 49 -4 24.7
14:00 1009 29.8 839 24.78 6.1 43 47 -4.4 24.2
14:05 1009 29.8 839 24.78 6.2 43.2 45 -4.8 23.3
14:10 1010 29.83 839 24.78 6.4 43.4 44 -5 23.1
14:15 1010 29.83 839 24.78 6.5 43.6 45 -4.6 23.8
14:20 1010 29.83 839 24.78 6.5 43.7 44 -4.8 23.4
14:25 1010 29.83 839 24.78 6.5 43.8 44 -4.7 23.5
14:30 1010 29.83 839 24.78 6.6 43.9 45 -4.5 23.8
14:35 1010 29.83 839 24.78 6.6 43.9 41 -5.8 21.5
14:40 1010 29.83 839 24.78 6.4 43.6 39 -6.4 20.6
14:45 1010 29.83 839 24.78 6.4 43.5 39 -6.7 20
14:50 1010 29.83 839 24.78 6.2 43.1 38 -7.2 19
14:55 1010 29.83 839 24.78 6.2 43.1 36 -7.8 17.9
15:00 1010 29.83 839 24.78 6.4 43.4 35 -8 17.6
15:05 1010 29.83 839 24.78 6.5 43.6 35 -8 17.6
15:10 1010 29.83 839 24.78 6.5 43.7 35 -7.8 17.9
15:15 1010 29.83 839 24.78 6.5 43.7 37 -7.3 18.8
15:20 1010 29.83 839 24.78 6.4 43.5 38 -7 19.3
15:25 1010 29.83 839 24.78 6.6 43.9 37 -7 19.5
15:30 1010 29.83 839 24.78 6.6 43.8 38 -6.6 20.1
15:35 1010 29.83 839 24.78 6.2 43.1 37 -7.4 18.7
15:40 1010 29.83 839 24.78 6.4 43.5 35 -7.8 17.9
15:45 1010 29.83 839 24.78 6.8 44.2 34 -8.1 17.5
15:50 1010 29.83 839 24.78 6.8 44.3 33 -8.4 16.9
15:55 1010 29.83 839 24.78 6.8 44.2 33 -8.4 16.9
16:00 1010 29.83 839 24.78 6.5 43.8 30 -9.7 14.5
16:05 1010 29.83 839 24.78 6.4 43.5 28 -10.9 12.4
16:10 1010 29.83 840 24.81 6.3 43.4 31 -9.6 14.7
16:15 1011 29.85 840 24.81 6.2 43.1 32 -9.1 15.5
16:20 1011 29.85 840 24.81 6.2 43.2 30 -10.2 13.7
16:25 1011 29.85 840 24.81 6.2 43.1 29 -10.7 12.8
16:30 1011 29.85 840 24.81 6 42.9 29 -10.8 12.5
16:35 1011 29.85 840 24.81 6 42.8 30 -10.2 13.7
16:40 1011 29.85 840 24.81 6 42.7 29 -10.6 12.9
16:45 1011 29.85 840 24.81 5.9 42.5 30 -10.4 13.3
16:50 1011 29.85 840 24.81 5.6 42.1 31 -10.1 13.8
16:55 1011 29.85 840 24.81 5.7 42.2 33 -9.5 14.8
17:00 1011 29.85 840 24.81 5.7 42.3 32 -9.6 14.7
17:05 1011 29.85 840 24.81 5.6 42.1 31 -10.1 13.8
17:10 1011 29.85 840 24.81 5.6 42.1 29 -11 12.2
17:15 1011 29.85 840 24.81 5.6 42 31 -10.5 13.2
17:20 1011 29.85 840 24.81 5.5 41.9 30 -10.8 12.5
17:25 1011 29.85 840 24.81 5.5 41.9 28 -11.6 11.1
17:30 1011 29.85 841 24.83 5.4 41.7 30 -10.9 12.3
17:35 1011 29.85 841 24.83 5.1 41.1 30 -10.9 12.3
17:40 1011 29.85 841 24.83 5 41 31 -10.6 12.9
17:45 1012 29.88 841 24.83 5 40.9 33 -9.9 14.2
17:50 1011 29.85 841 24.83 4.8 40.7 32 -10.4 13.2
17:55 1012 29.88 841 24.83 4.8 40.6 33 -10.2 13.6
18:00 1012 29.88 841 24.83 4.8 40.6 30 -11.2 11.8
18:05 1012 29.88 841 24.83 4.6 40.3 32 -10.8 12.6
18:10 1012 29.88 841 24.83 4.3 39.7 33 -10.7 12.7
18:15 1012 29.88 841 24.83 4.2 39.5 32 -11.2 11.8
18:20 1012 29.88 841 24.83 4.1 39.5 33 -10.6 12.9
18:25 1012 29.88 841 24.83 3.8 38.8 32 -11.3 11.7
18:30 1012 29.88 841 24.83 3.8 38.8 31 -11.9 10.6
18:35 1012 29.88 841 24.83 3.8 38.8 32 -11.5 11.2
18:40 1012 29.88 841 24.83 3.6 38.5 32 -11.4 11.4
18:45 1012 29.88 841 24.83 3.5 38.3 31 -12 10.5
18:50 1012 29.88 841 24.83 3.4 38.2 29 -12.9 8.8
18:55 1012 29.88 841 24.83 3.4 38.2 31 -12 10.3
19:00 1012 29.88 842 24.86 3.3 38 32 -11.9 10.5
19:05 1012 29.88 842 24.86 3.2 37.7 33 -11.7 10.9
19:10 1012 29.88 842 24.86 3.1 37.6 33 -11.9 10.7
19:15 1012 29.88 842 24.86 3.1 37.5 33 -11.6 11.1
19:20 1013 29.91 842 24.86 2.9 37.2 37 -10.4 13.2
19:25 1013 29.91 842 24.86 2.7 36.8 38 -10.2 13.6
19:30 1013 29.91 842 24.86 2.6 36.7 35 -11.3 11.6
19:35 1013 29.91 842 24.86 2.8 37 33 -12.1 10.2
19:40 1013 29.91 842 24.86 2.9 37.3 33 -11.9 10.6
19:45 1013 29.91 842 24.86 2.8 37.1 33 -12.1 10.2
19:50 1013 29.91 842 24.86 2.9 37.2 32 -12.1 10.2
19:55 1013 29.91 842 24.86 2.8 37.1 31 -12.7 9.1
20:00 1013 29.91 842 24.86 2.9 37.3 32 -12.1 10.2
20:05 1013 29.91 843 24.89 2.8 37.1 33 -12 10.4
20:10 1013 29.91 843 24.89 2.8 37.1 34 -11.4 11.4
20:15 1014 29.94 843 24.89 2.7 36.8 36 -11.1 12.1
20:20 1014 29.94 843 24.89 2.4 36.3 37 -10.8 12.5
20:25 1014 29.94 843 24.89 2.2 35.9 39 -10.3 13.5
20:30 1014 29.94 843 24.89 2 35.6 41 -10 14.1
20:35 1014 29.94 843 24.89 1.9 35.4 43 -9.4 15
20:40 1014 29.94 844 24.92 1.8 35.2 45 -9 15.9
20:45 1014 29.94 843 24.89 1.7 35 46 -8.8 16.2
20:50 1014 29.94 843 24.89 1.6 34.9 43 -9.8 14.4
20:55 1014 29.94 843 24.89 1.6 34.9 43 -9.8 14.3
21:00 1014 29.94 843 24.89 1.6 34.9 39 -11 12.2
21:05 1014 29.94 843 24.89 1.8 35.3 38 -10.9 12.4
21:10 1014 29.94 843 24.89 1.7 35.1 41 -10.3 13.4
21:15 1014 29.94 843 24.89 1.5 34.6 40 -10.7 12.8
21:20 1014 29.94 843 24.89 1.2 34.2 40 -10.8 12.5
21:25 1014 29.94 844 24.92 1.2 34.1 40 -11.1 12
21:30 1014 29.94 844 24.92 1.2 34.1 38 -11.6 11.1
21:35 1014 29.94 844 24.92 1.2 34.2 37 -11.8 10.7
21:40 1015 29.97 844 24.92 1.2 34.2 36 -12.3 9.9
21:45 1015 29.97 844 24.92 1.4 34.6 35 -12.4 9.6
21:50 1015 29.97 844 24.92 1.3 34.4 37 -11.9 10.7
21:55 1015 29.97 844 24.92 1.2 34.1 36 -12.3 9.9
22:00 1015 29.97 844 24.92 1.2 34.2 38 -11.7 10.9
22:05 1015 29.97 844 24.92 1.2 34.2 38 -11.6 11.2
22:10 1015 29.97 844 24.92 1.1 34.1 39 -11.4 11.5
22:15 1015 29.97 844 24.92 1 33.8 39 -11.3 11.7
22:20 1015 29.97 844 24.92 0.9 33.6 40 -11.3 11.7
22:25 1015 29.97 845 24.95 0.8 33.4 41 -10.9 12.3
22:30 1015 29.97 845 24.95 0.7 33.3 42 -10.9 12.4
22:35 1015 29.97 845 24.95 0.6 33.1 45 -9.9 14.2
22:40 1016 30 845 24.95 0.3 32.6 48 -9.5 14.9
22:45 1016 30 845 24.95 0.2 32.3 50 -9.1 15.6
22:50 1016 30 845 24.95 -0.1 31.8 52 -8.9 16.1
22:55 1016 30 845 24.95 -0.2 31.6 53 -8.7 16.3
23:00 1016 30 845 24.95 -0.4 31.4 54 -8.5 16.6
23:05 1016 30 845 24.95 -0.5 31.1 54 -8.6 16.5
23:10 1016 30 845 24.95 -0.8 30.6 58 -8 17.6
23:15 1016 30 845 24.95 -1.2 29.9 61 -7.7 18.1
23:20 1016 30 845 24.95 -1.6 29.2 64 -7.6 18.3
23:25 1016 30 845 24.95 -1.7 28.9 64 -7.7 18.2
23:30 1016 30 845 24.95 -1.9 28.6 64 -7.8 18
23:35 1016 30 845 24.95 -1.8 28.8 62 -8.1 17.4
23:40 1016 30 846 24.98 -1.6 29.1 63 -7.8 17.9
23:45 1016 30 846 24.98 -1.4 29.4 58 -8.6 16.6
23:50 1016 30 846 24.98 -1 30.2 55 -9 15.9
23:55 1016 30 846 24.98 -0.9 30.5 56 -8.5 16.6
24:00 1016 30 846 24.98 -1 30.3 55 -9 15.8